Time;durP1;ratioP1;P1;durP2;ratioP2;P2;SDS_P1;SDS_P2;PMS_P1;PMS_P2;Temp;Humidity;BMP_temperature;BMP_pressure;BME280_temperature;BME280_humidity;BME280_pressure;Samples;Min_cycle;Max_cycle;Signal;HPM_P1;HPM_P2
2022/03/03 00:01:14;;;;;;;;;;;;;;;;;;2210398;59;1964;-69
2022/03/03 00:03:50;;;;;;;;;;;;;;;;;;2211276;67;1160;-68
2022/03/03 00:06:23;;;;;;;;;;;;;;;;;;2210845;59;1301;-68
2022/03/03 00:08:58;;;;;;;;;;;;;;;;;;2211225;59;1225;-68
2022/03/03 00:11:31;;;;;;;;;;;;;;;;;;2209769;59;1890;-68
2022/03/03 00:14:05;;;;;;;;;;;;;;;;;;2210633;59;1271;-68
2022/03/03 00:16:38;;;;;;;;;;;;;;;;;;2210849;59;1217;-69
2022/03/03 00:19:14;;;;;;;;;;;;;;;;;;2211146;59;1568;-68
2022/03/03 00:21:47;;;;;;;;;;;;;;;;;;2209936;59;1278;-68
2022/03/03 00:24:20;;;;;;;;;;;;;;;;;;2210555;59;1681;-68
2022/03/03 00:26:53;;;;;;;;;;;;;;;;;;2211115;59;1933;-68
2022/03/03 00:29:27;;;;;;;;;;;;;;;;;;2210533;67;1240;-68
2022/03/03 00:32:00;;;;;;;;;;;;;;;;;;2210616;67;1096;-69
2022/03/03 00:34:36;;;;;;;;;;;;;;;;;;2210404;59;1086;-68
2022/03/03 00:37:09;;;;;;;;;;;;;;;;;;2210950;59;1334;-68
2022/03/03 00:39:42;;;;;;;;;;;;;;;;;;2209850;59;1562;-69
2022/03/03 00:42:15;;;;;;;;;;;;;;;;;;2210599;67;1158;-68
2022/03/03 00:44:49;;;;;;;;;;;;;;;;;;2211451;67;1040;-68
2022/03/03 00:47:22;;;;;;;;;;;;;;;;;;2210429;59;1990;-68
2022/03/03 00:49:57;;;;;;;;;;;;;;;;;;2211015;59;1271;-68
2022/03/03 00:52:31;;;;;;;;;;;;;;;;;;2210372;59;1638;-68
2022/03/03 00:55:05;;;;;;;;;;;;;;;;;;2211062;67;1140;-68
2022/03/03 00:57:38;;;;;;;;;;;;;;;;;;2210472;59;1184;-68
2022/03/03 01:00:12;;;;;;;;;;;;;;;;;;2209115;59;2243;-69
2022/03/03 01:02:45;;;;;;;;;;;;;;;;;;2210242;67;1093;-68
2022/03/03 01:05:21;;;;;;;;;;;;;;;;;;2210624;67;1304;-69
2022/03/03 01:07:54;;;;;;;;;;;;;;;;;;2210732;59;1937;-68
2022/03/03 01:10:28;;;;;;;;;;;;;;;;;;2210732;59;1291;-68
2022/03/03 01:13:01;;;;;;;;;;;;;;;;;;2209702;59;1200;-68
2022/03/03 01:15:34;;;;;;;;;;;;;;;;;;2210953;67;1208;-68
2022/03/03 01:18:07;;;;;;;;;;;;;;;;;;2210818;67;1122;-68
2022/03/03 01:20:43;;;;;;;;;;;;;;;;;;2210522;59;1715;-68
2022/03/03 01:23:16;;;;;;;;;;;;;;;;;;2210430;59;1453;-68
2022/03/03 01:25:49;;;;;;;;;;;;;;;;;;2210563;59;1187;-69
2022/03/03 01:28:23;;;;;;;;;;;;;;;;;;2210566;59;1981;-68
2022/03/03 01:30:56;;;;;;;;;;;;;;;;;;2210550;59;1252;-68
2022/03/03 01:33:29;;;;;;;;;;;;;;;;;;2210823;59;1676;-68
2022/03/03 01:36:05;;;;;;;;;;;;;;;;;;2210557;67;1142;-68
2022/03/03 01:38:38;;;;;;;;;;;;;;;;;;2210662;59;1065;-68
2022/03/03 01:41:11;;;;;;;;;;;;;;;;;;2209390;59;1661;-68
2022/03/03 01:43:44;;;;;;;;;;;;;;;;;;2210502;67;1140;-68
2022/03/03 01:46:18;;;;;;;;;;;;;;;;;;2210778;67;1262;-68
2022/03/03 01:48:51;;;;;;;;;;;;;;;;;;2209953;59;1945;-68
2022/03/03 01:51:27;;;;;;;;;;;;;;;;;;2210344;59;1387;-68
2022/03/03 01:54:00;;;;;;;;;;;;;;;;;;2210748;59;1152;-68
2022/03/03 01:56:33;;;;;;;;;;;;;;;;;;2210016;59;1252;-68
2022/03/03 01:59:06;;;;;;;;;;;;;;;;;;2211201;59;1542;-68
2022/03/03 02:01:40;;;;;;;;;;;;;;;;;;2210170;67;1215;-68
2022/03/03 02:04:13;;;;;;;;;;;;;;;;;;2210871;67;1271;-68
2022/03/03 02:06:49;;;;;;;;;;;;;;;;;;2210160;67;1105;-68
2022/03/03 02:09:22;;;;;;;;;;;;;;;;;;2210952;59;1995;-68
2022/03/03 02:11:55;;;;;;;;;;;;;;;;;;2209907;59;1390;-68
2022/03/03 02:14:28;;;;;;;;;;;;;;;;;;2210105;67;1288;-68
2022/03/03 02:17:02;;;;;;;;;;;;;;;;;;2210676;59;1215;-68
2022/03/03 02:19:35;;;;;;;;;;;;;;;;;;2210575;59;1577;-68
2022/03/03 02:22:11;;;;;;;;;;;;;;;;;;2210654;67;1164;-68
2022/03/03 02:24:44;;;;;;;;;;;;;;;;;;2210615;59;1486;-68
2022/03/03 02:27:18;;;;;;;;;;;;;;;;;;2211065;59;2100;-68
2022/03/03 02:29:52;;;;;;;;;;;;;;;;;;2210036;59;1269;-68
2022/03/03 02:32:25;;;;;;;;;;;;;;;;;;2210440;59;1274;-68
2022/03/03 02:34:58;;;;;;;;;;;;;;;;;;2210847;59;1191;-68
2022/03/03 02:37:36;;;;;;;;;;;;;;;;;;2210920;59;1042;-68
2022/03/03 02:40:10;;;;;;;;;;;;;;;;;;2209760;59;1620;-69
2022/03/03 02:42:44;;;;;;;;;;;;;;;;;;2210076;67;1189;-68
2022/03/03 02:45:17;;;;;;;;;;;;;;;;;;2210763;59;1243;-68
2022/03/03 02:47:51;;;;;;;;;;;;;;;;;;2210544;59;1925;-68
2022/03/03 02:50:25;;;;;;;;;;;;;;;;;;2210139;67;1202;-68
2022/03/03 02:53:02;;;;;;;;;;;;;;;;;;2210893;67;1168;-68
2022/03/03 02:55:35;;;;;;;;;;;;;;;;;;2210624;67;1484;-68
2022/03/03 02:58:10;;;;;;;;;;;;;;;;;;2210948;59;1154;-68
2022/03/03 03:00:44;;;;;;;;;;;;;;;;;;2210357;59;1605;-68
2022/03/03 03:03:17;;;;;;;;;;;;;;;;;;2211065;59;1997;-68
2022/03/03 03:05:50;;;;;;;;;;;;;;;;;;2211141;67;1171;-68
2022/03/03 03:08:26;;;;;;;;;;;;;;;;;;2210823;59;1996;-68
2022/03/03 03:10:59;;;;;;;;;;;;;;;;;;2211086;67;1244;-68
2022/03/03 03:13:33;;;;;;;;;;;;;;;;;;2211429;59;1275;-68
2022/03/03 03:16:06;;;;;;;;;;;;;;;;;;2210853;67;1437;-68
2022/03/03 03:18:40;;;;;;;;;;;;;;;;;;2210716;59;1231;-68
2022/03/03 03:21:13;;;;;;;;;;;;;;;;;;2210917;59;1695;-68
2022/03/03 03:23:49;;;;;;;;;;;;;;;;;;2211127;59;1494;-68
2022/03/03 03:26:22;;;;;;;;;;;;;;;;;;2210452;59;1541;-68
2022/03/03 03:28:56;;;;;;;;;;;;;;;;;;2210893;67;1932;-69
2022/03/03 03:31:29;;;;;;;;;;;;;;;;;;2211363;67;1106;-68
2022/03/03 03:34:02;;;;;;;;;;;;;;;;;;2210665;59;1176;-68
2022/03/03 03:36:35;;;;;;;;;;;;;;;;;;2210684;59;1069;-68
2022/03/03 03:39:11;;;;;;;;;;;;;;;;;;2210993;59;1986;-68
2022/03/03 03:41:45;;;;;;;;;;;;;;;;;;2210261;67;1152;-68
2022/03/03 03:44:18;;;;;;;;;;;;;;;;;;2210483;59;1582;-68
2022/03/03 03:46:51;;;;;;;;;;;;;;;;;;2210614;59;1145;-68
2022/03/03 03:49:24;;;;;;;;;;;;;;;;;;2210768;59;1933;-68
2022/03/03 03:51:57;;;;;;;;;;;;;;;;;;2211177;67;1182;-68
2022/03/03 03:54:34;;;;;;;;;;;;;;;;;;2210762;59;1250;-68
2022/03/03 03:57:07;;;;;;;;;;;;;;;;;;2210965;67;1291;-69
2022/03/03 03:59:40;;;;;;;;;;;;;;;;;;2209963;59;2041;-68
2022/03/03 04:02:13;;;;;;;;;;;;;;;;;;2210678;59;1258;-68
2022/03/03 04:04:46;;;;;;;;;;;;;;;;;;2210617;59;1508;-68
2022/03/03 04:07:19;;;;;;;;;;;;;;;;;;2210863;59;1177;-68
2022/03/03 04:09:55;;;;;;;;;;;;;;;;;;2210281;59;1979;-68
2022/03/03 04:12:28;;;;;;;;;;;;;;;;;;2210414;67;1247;-68
2022/03/03 04:15:01;;;;;;;;;;;;;;;;;;2210420;59;1471;-68
2022/03/03 04:17:35;;;;;;;;;;;;;;;;;;2210977;59;1041;-68
2022/03/03 04:20:09;;;;;;;;;;;;;;;;;;2210596;59;1714;-68
2022/03/03 04:22:42;;;;;;;;;;;;;;;;;;2210868;67;1186;-68
2022/03/03 04:25:18;;;;;;;;;;;;;;;;;;2211171;59;1427;-68
2022/03/03 04:27:51;;;;;;;;;;;;;;;;;;2211016;67;1112;-68
2022/03/03 04:30:24;;;;;;;;;;;;;;;;;;2210728;67;1941;-68
2022/03/03 04:32:57;;;;;;;;;;;;;;;;;;2211753;59;1100;-69
2022/03/03 04:35:31;;;;;;;;;;;;;;;;;;2210096;59;1176;-68
2022/03/03 04:38:04;;;;;;;;;;;;;;;;;;2211248;67;1131;-69
2022/03/03 04:40:41;;;;;;;;;;;;;;;;;;2210395;59;1732;-68
2022/03/03 04:43:14;;;;;;;;;;;;;;;;;;2210558;67;1250;-68
2022/03/03 04:45:47;;;;;;;;;;;;;;;;;;2209235;59;1672;-68
2022/03/03 04:48:21;;;;;;;;;;;;;;;;;;2209811;59;1931;-68
2022/03/03 04:50:54;;;;;;;;;;;;;;;;;;2210723;59;1248;-68
2022/03/03 04:53:28;;;;;;;;;;;;;;;;;;2210621;67;1226;-68
2022/03/03 04:56:04;;;;;;;;;;;;;;;;;;2210603;67;1073;-68
2022/03/03 04:58:40;;;;;;;;;;;;;;;;;;2210629;67;1167;-68
2022/03/03 05:01:13;;;;;;;;;;;;;;;;;;2210758;53;3547;-72
2022/03/03 05:03:46;;;;;;;;;;;;;;;;;;2211684;59;1128;-72
2022/03/03 05:06:20;;;;;;;;;;;;;;;;;;2211969;67;1131;-72
2022/03/03 05:08:53;;;;;;;;;;;;;;;;;;2211814;59;1931;-72
2022/03/03 05:11:29;;;;;;;;;;;;;;;;;;2212177;59;1224;-72
2022/03/03 05:14:02;;;;;;;;;;;;;;;;;;2210825;59;1205;-72
2022/03/03 05:16:35;;;;;;;;;;;;;;;;;;2211237;59;1172;-72
2022/03/03 05:19:08;;;;;;;;;;;;;;;;;;2212150;67;1235;-72
2022/03/03 05:21:41;;;;;;;;;;;;;;;;;;2210322;59;1614;-72
2022/03/03 05:24:14;;;;;;;;;;;;;;;;;;2210672;59;1460;-72
2022/03/03 05:26:50;;;;;;;;;;;;;;;;;;2211706;67;1125;-72
2022/03/03 05:29:23;;;;;;;;;;;;;;;;;;2212375;67;1982;-72
2022/03/03 05:31:57;;;;;;;;;;;;;;;;;;2212440;59;1206;-72
2022/03/03 05:34:30;;;;;;;;;;;;;;;;;;2211859;59;1278;-72
2022/03/03 05:37:04;;;;;;;;;;;;;;;;;;2211756;59;1148;-72
2022/03/03 05:39:37;;;;;;;;;;;;;;;;;;2210723;59;1811;-72
2022/03/03 05:42:14;;;;;;;;;;;;;;;;;;2210911;59;1156;-72
2022/03/03 05:44:47;;;;;;;;;;;;;;;;;;2212720;67;1121;-72
2022/03/03 05:47:21;;;;;;;;;;;;;;;;;;2211717;59;1239;-72
2022/03/03 05:49:59;;;;;;;;;;;;;;;;;;2212006;59;1977;-72
2022/03/03 05:52:32;;;;;;;;;;;;;;;;;;2211662;59;1118;-71
2022/03/03 05:55:05;;;;;;;;;;;;;;;;;;2211653;59;1238;-72
2022/03/03 05:57:42;;;;;;;;;;;;;;;;;;2211789;59;1104;-72
2022/03/03 06:00:16;;;;;;;;;;;;;;;;;;2211448;59;1536;-72
2022/03/03 06:02:51;;;;;;;;;;;;;;;;;;2211588;59;1204;-71
2022/03/03 06:05:26;;;;;;;;;;;;;;;;;;2211966;67;1264;-72
2022/03/03 06:08:03;;;;;;;;;;;;;;;;;;2211659;59;1144;-72
2022/03/03 06:10:37;;;;;;;;;;;;;;;;;;2212132;67;1941;-72
2022/03/03 06:13:21;;;;;;;;;;;;;;;;;;2210987;59;1312;-72
2022/03/03 06:15:55;;;;;;;;;;;;;;;;;;2211045;59;1117;-72
2022/03/03 06:18:30;;;;;;;;;;;;;;;;;;2210676;59;1220;-72
2022/03/03 06:21:03;;;;;;;;;;;;;;;;;;2210302;59;1803;-72
2022/03/03 06:23:37;;;;;;;;;;;;;;;;;;2212406;59;1305;-72
2022/03/03 06:26:11;;;;;;;;;;;;;;;;;;2210001;59;1781;-72
2022/03/03 06:28:47;;;;;;;;;;;;;;;;;;2211304;67;1939;-72
2022/03/03 06:31:20;;;;;;;;;;;;;;;;;;2210137;59;1460;-72
2022/03/03 06:33:54;;;;;;;;;;;;;;;;;;2211125;59;1757;-72
2022/03/03 06:36:27;;;;;;;;;;;;;;;;;;2207440;59;1764;-72
2022/03/03 06:39:00;;;;;;;;;;;;;;;;;;2211105;59;1219;-72
2022/03/03 06:41:33;;;;;;;;;;;;;;;;;;2210746;59;1590;-72
2022/03/03 06:44:09;;;;;;;;;;;;;;;;;;2209218;67;1395;-72
2022/03/03 06:46:43;;;;;;;;;;;;;;;;;;2211718;67;1153;-72
2022/03/03 06:49:17;;;;;;;;;;;;;;;;;;2211683;59;1963;-72
2022/03/03 06:51:51;;;;;;;;;;;;;;;;;;2211127;59;1620;-72
2022/03/03 06:54:25;;;;;;;;;;;;;;;;;;2211543;59;1152;-72
2022/03/03 06:56:59;;;;;;;;;;;;;;;;;;2212061;59;1141;-72
2022/03/03 06:59:35;;;;;;;;;;;;;;;;;;2212201;59;1852;-71
2022/03/03 07:02:08;;;;;;;;;;;;;;;;;;2211907;59;1252;-72
2022/03/03 07:04:42;;;;;;;;;;;;;;;;;;2214759;67;1196;-72
2022/03/03 07:07:16;;;;;;;;;;;;;;;;;;2211788;67;1151;-72
2022/03/03 07:09:49;;;;;;;;;;;;;;;;;;2212531;67;1991;-71
2022/03/03 07:12:23;;;;;;;;;;;;;;;;;;2213310;59;1208;-72
2022/03/03 07:14:58;;;;;;;;;;;;;;;;;;2209365;59;1552;-72
2022/03/03 07:17:40;;;;;;;;;;;;;;;;;;2212514;59;1176;-72
2022/03/03 07:20:16;;;;;;;;;;;;;;;;;;2211624;59;1961;-72
2022/03/03 07:22:56;;;;;;;;;;;;;;;;;;2212647;59;1081;-72
2022/03/03 07:25:33;;;;;;;;;;;;;;;;;;2209637;59;1430;-72
2022/03/03 07:28:08;;;;;;;;;;;;;;;;;;2210372;67;1283;-72
2022/03/03 07:30:45;;;;;;;;;;;;;;;;;;2213690;67;1948;-72
2022/03/03 07:33:21;;;;;;;;;;;;;;;;;;2210549;67;1245;-73
2022/03/03 07:35:58;;;;;;;;;;;;;;;;;;2213091;59;1218;-72
2022/03/03 07:38:37;;;;;;;;;;;;;;;;;;2213227;59;1153;-69
2022/03/03 07:41:10;;;;;;;;;;;;;;;;;;2211218;59;1764;-70
2022/03/03 07:43:43;;;;;;;;;;;;;;;;;;2213056;67;1273;-70
2022/03/03 07:46:19;;;;;;;;;;;;;;;;;;2214030;59;1247;-70
2022/03/03 07:48:53;;;;;;;;;;;;;;;;;;2212488;59;1284;-70
2022/03/03 07:51:27;;;;;;;;;;;;;;;;;;2210340;59;1932;-70
2022/03/03 07:54:01;;;;;;;;;;;;;;;;;;2211836;67;1205;-70
2022/03/03 07:56:39;;;;;;;;;;;;;;;;;;2211459;67;1100;-70
2022/03/03 07:59:13;;;;;;;;;;;;;;;;;;2210846;59;1298;-70
2022/03/03 08:01:50;;;;;;;;;;;;;;;;;;2211920;59;2046;-70
2022/03/03 08:04:27;;;;;;;;;;;;;;;;;;2212664;60;1284;-70
2022/03/03 08:07:02;;;;;;;;;;;;;;;;;;2211532;67;1150;-70
2022/03/03 08:09:38;;;;;;;;;;;;;;;;;;2211655;59;1929;-69
2022/03/03 08:12:12;;;;;;;;;;;;;;;;;;2211570;59;1164;-70
2022/03/03 08:14:46;;;;;;;;;;;;;;;;;;2206852;59;1426;-70
2022/03/03 08:17:23;;;;;;;;;;;;;;;;;;2207086;67;1345;-69
2022/03/03 08:19:57;;;;;;;;;;;;;;;;;;2209816;59;2169;-69
2022/03/03 08:22:30;;;;;;;;;;;;;;;;;;2210373;59;1058;-67
2022/03/03 08:25:04;;;;;;;;;;;;;;;;;;2208195;59;1753;-67
2022/03/03 08:27:38;;;;;;;;;;;;;;;;;;2210253;67;1051;-67
2022/03/03 08:30:12;;;;;;;;;;;;;;;;;;2210703;59;1932;-67
2022/03/03 08:32:53;;;;;;;;;;;;;;;;;;2210570;59;1261;-67
2022/03/03 08:35:29;;;;;;;;;;;;;;;;;;2210045;59;1723;-67
2022/03/03 08:38:05;;;;;;;;;;;;;;;;;;2209844;59;1669;-67
2022/03/03 08:40:38;;;;;;;;;;;;;;;;;;2209977;59;1832;-68
2022/03/03 08:43:13;;;;;;;;;;;;;;;;;;2210395;67;1091;-68
2022/03/03 08:45:48;;;;;;;;;;;;;;;;;;2208890;59;1495;-68
2022/03/03 08:48:26;;;;;;;;;;;;;;;;;;2210750;59;1317;-67
2022/03/03 08:50:59;;;;;;;;;;;;;;;;;;2210194;59;1983;-68
2022/03/03 08:53:32;;;;;;;;;;;;;;;;;;2207116;67;1241;-68
2022/03/03 08:56:06;;;;;;;;;;;;;;;;;;2210875;59;1596;-68
2022/03/03 08:58:39;;;;;;;;;;;;;;;;;;2211129;59;1246;-67
2022/03/03 09:01:12;;;;;;;;;;;;;;;;;;2210136;59;1771;-68
2022/03/03 09:03:48;;;;;;;;;;;;;;;;;;2211008;59;1212;-68
2022/03/03 09:06:21;;;;;;;;;;;;;;;;;;2210989;59;1669;-68
2022/03/03 09:08:55;;;;;;;;;;;;;;;;;;2208774;59;1516;-67
2022/03/03 09:11:28;;;;;;;;;;;;;;;;;;2210724;67;1987;-68
2022/03/03 09:14:01;;;;;;;;;;;;;;;;;;2211566;59;1611;-67
2022/03/03 09:16:34;;;;;;;;;;;;;;;;;;2207350;59;1922;-68
2022/03/03 09:19:10;;;;;;;;;;;;;;;;;;2208847;59;1129;-68
2022/03/03 09:21:43;;;;;;;;;;;;;;;;;;2210015;59;1908;-68
2022/03/03 09:24:17;;;;;;;;;;;;;;;;;;2210610;59;1304;-67
2022/03/03 09:26:50;;;;;;;;;;;;;;;;;;2211435;59;1247;-67
2022/03/03 09:29:24;;;;;;;;;;;;;;;;;;2211372;67;1219;-68
2022/03/03 09:31:57;;;;;;;;;;;;;;;;;;2211592;59;1991;-68
2022/03/03 09:34:33;;;;;;;;;;;;;;;;;;2211630;67;1136;-68
2022/03/03 09:37:06;;;;;;;;;;;;;;;;;;2211483;67;1176;-68
2022/03/03 09:39:39;;;;;;;;;;;;;;;;;;2211124;59;1709;-67
2022/03/03 09:42:13;;;;;;;;;;;;;;;;;;2211978;67;1335;-68
2022/03/03 09:44:46;;;;;;;;;;;;;;;;;;2211842;67;1130;-68
2022/03/03 09:47:19;;;;;;;;;;;;;;;;;;2207714;59;1260;-67
2022/03/03 09:49:56;;;;;;;;;;;;;;;;;;2211865;59;1940;-67
2022/03/03 09:52:30;;;;;;;;;;;;;;;;;;2211334;67;1079;-68
2022/03/03 09:55:03;;;;;;;;;;;;;;;;;;2211099;59;1131;-68
2022/03/03 09:57:36;;;;;;;;;;;;;;;;;;2211580;59;1184;-68
2022/03/03 10:00:12;;;;;;;;;;;;;;;;;;2210829;59;1959;-68
2022/03/03 10:02:58;;;;;;;;;;;;;;;;;;2212946;59;1249;-67
2022/03/03 10:05:35;;;;;;;;;;;;;;;;;;2210776;59;1606;-68
2022/03/03 10:08:10;;;;;;;;;;;;;;;;;;2210643;59;1611;-68
2022/03/03 10:10:45;;;;;;;;;;;;;;;;;;2210744;59;1927;-68
2022/03/03 10:13:19;;;;;;;;;;;;;;;;;;2210950;59;1362;-68
2022/03/03 10:15:53;;;;;;;;;;;;;;;;;;2209609;67;1407;-68
2022/03/03 10:18:27;;;;;;;;;;;;;;;;;;2211781;67;1091;-68
2022/03/03 10:21:04;;;;;;;;;;;;;;;;;;2209262;59;1836;-67
2022/03/03 10:23:38;;;;;;;;;;;;;;;;;;2211425;59;1637;-67
2022/03/03 10:26:12;;;;;;;;;;;;;;;;;;2209422;67;1245;-67
2022/03/03 10:28:49;;;;;;;;;;;;;;;;;;2211497;59;1220;-67
2022/03/03 10:31:22;;;;;;;;;;;;;;;;;;2210892;67;1988;-67
2022/03/03 10:33:56;;;;;;;;;;;;;;;;;;2211788;67;1209;-67
2022/03/03 10:36:34;;;;;;;;;;;;;;;;;;2210948;59;1218;-67
2022/03/03 10:39:07;;;;;;;;;;;;;;;;;;2212382;67;1312;-67
2022/03/03 10:41:42;;;;;;;;;;;;;;;;;;2210212;59;2070;-67
2022/03/03 10:44:19;;;;;;;;;;;;;;;;;;2211810;67;1137;-67
2022/03/03 10:47:03;;;;;;;;;;;;;;;;;;2211932;59;1262;-67
2022/03/03 10:49:36;;;;;;;;;;;;;;;;;;2210895;67;1250;-67
2022/03/03 10:52:17;;;;;;;;;;;;;;;;;;2211220;59;1927;-67
2022/03/03 10:54:55;;;;;;;;;;;;;;;;;;2211832;67;1243;-67
2022/03/03 10:57:39;;;;;;;;;;;;;;;;;;2211030;59;1299;-67
2022/03/03 11:00:13;;;;;;;;;;;;;;;;;;2212700;53;3519;-72
2022/03/03 11:02:47;;;;;;;;;;;;;;;;;;2207966;59;1186;-72
2022/03/03 11:05:21;;;;;;;;;;;;;;;;;;2209752;59;1545;-72
2022/03/03 11:07:58;;;;;;;;;;;;;;;;;;2206040;59;1609;-72
2022/03/03 11:10:32;;;;;;;;;;;;;;;;;;2207691;67;1969;-72
2022/03/03 11:13:05;;;;;;;;;;;;;;;;;;2208931;59;2112;-72
2022/03/03 11:15:41;;;;;;;;;;;;;;;;;;2211240;59;1097;-72
2022/03/03 11:18:18;;;;;;;;;;;;;;;;;;2211001;59;1602;-72
2022/03/03 11:20:51;;;;;;;;;;;;;;;;;;2210847;59;1679;-72
2022/03/03 11:23:28;;;;;;;;;;;;;;;;;;2210728;59;1732;-73
2022/03/03 11:26:01;;;;;;;;;;;;;;;;;;2210406;59;1568;-72
2022/03/03 11:28:39;;;;;;;;;;;;;;;;;;2210579;59;1691;-72
2022/03/03 11:31:26;;;;;;;;;;;;;;;;;;2211062;59;1940;-73
2022/03/03 11:34:18;;;;;;;;;;;;;;;;;;2211089;59;1162;-72
2022/03/03 11:36:52;;;;;;;;;;;;;;;;;;2210527;59;1194;-72
2022/03/03 11:39:40;;;;;;;;;;;;;;;;;;2212292;67;1174;-72
2022/03/03 11:42:20;;;;;;;;;;;;;;;;;;2211081;59;1785;-72
2022/03/03 11:44:54;;;;;;;;;;;;;;;;;;2209592;59;1710;-72
2022/03/03 11:47:29;;;;;;;;;;;;;;;;;;2211699;59;1574;-72
2022/03/03 11:50:12;;;;;;;;;;;;;;;;;;2209663;59;1811;-72
2022/03/03 11:52:52;;;;;;;;;;;;;;;;;;2211023;67;1932;-72
2022/03/03 11:55:39;;;;;;;;;;;;;;;;;;2210447;67;1422;-72
2022/03/03 11:58:14;;;;;;;;;;;;;;;;;;2210540;59;1607;-72
2022/03/03 12:00:48;;;;;;;;;;;;;;;;;;2210717;59;2121;-72
2022/03/03 12:03:22;;;;;;;;;;;;;;;;;;2211224;67;1214;-72
2022/03/03 12:06:08;;;;;;;;;;;;;;;;;;2211910;67;1150;-72
2022/03/03 12:08:42;;;;;;;;;;;;;;;;;;2211544;59;1184;-72
2022/03/03 12:11:19;;;;;;;;;;;;;;;;;;2211655;67;1992;-72
2022/03/03 12:13:57;;;;;;;;;;;;;;;;;;2210443;59;1578;-72
2022/03/03 12:16:32;;;;;;;;;;;;;;;;;;2211754;67;1162;-72
2022/03/03 12:19:11;;;;;;;;;;;;;;;;;;2210565;59;2043;-72
2022/03/03 12:21:45;;;;;;;;;;;;;;;;;;2211250;59;1729;-72
2022/03/03 12:24:35;;;;;;;;;;;;;;;;;;2211710;59;1483;-72
2022/03/03 12:27:18;;;;;;;;;;;;;;;;;;2211626;67;1097;-72
2022/03/03 12:29:56;;;;;;;;;;;;;;;;;;2211227;59;1271;-73
2022/03/03 12:32:36;;;;;;;;;;;;;;;;;;2211606;67;1975;-72
2022/03/03 12:35:16;;;;;;;;;;;;;;;;;;2211287;59;1222;-72
2022/03/03 12:37:49;;;;;;;;;;;;;;;;;;2211153;59;1153;-73
2022/03/03 12:40:25;;;;;;;;;;;;;;;;;;2207663;59;1738;-72
2022/03/03 12:43:02;;;;;;;;;;;;;;;;;;2209656;59;1096;-72
2022/03/03 12:45:35;;;;;;;;;;;;;;;;;;2211774;67;1085;-72
2022/03/03 12:48:08;;;;;;;;;;;;;;;;;;2211500;59;1292;-72
2022/03/03 12:50:42;;;;;;;;;;;;;;;;;;2209487;59;1826;-72
2022/03/03 12:53:18;;;;;;;;;;;;;;;;;;2210134;59;1928;-72
2022/03/03 12:55:52;;;;;;;;;;;;;;;;;;2210045;59;1770;-72
2022/03/03 12:58:32;;;;;;;;;;;;;;;;;;2210901;59;1669;-72
2022/03/03 13:01:05;;;;;;;;;;;;;;;;;;2209183;59;2150;-72
2022/03/03 13:03:39;;;;;;;;;;;;;;;;;;2210652;67;1339;-72
2022/03/03 13:06:12;;;;;;;;;;;;;;;;;;2210842;67;1191;-73
2022/03/03 13:08:46;;;;;;;;;;;;;;;;;;2210510;59;1261;-73
2022/03/03 13:11:19;;;;;;;;;;;;;;;;;;2210512;59;1923;-72
2022/03/03 13:13:57;;;;;;;;;;;;;;;;;;2210026;67;1208;-72
2022/03/03 13:16:31;;;;;;;;;;;;;;;;;;2210926;59;1203;-72
2022/03/03 13:19:06;;;;;;;;;;;;;;;;;;2210832;67;1231;-72
2022/03/03 13:21:43;;;;;;;;;;;;;;;;;;2210199;59;1768;-72
2022/03/03 13:24:17;;;;;;;;;;;;;;;;;;2211972;59;2338;-72
2022/03/03 13:26:52;;;;;;;;;;;;;;;;;;2210918;59;1372;-72
2022/03/03 13:29:30;;;;;;;;;;;;;;;;;;2210406;59;1575;-72
2022/03/03 13:32:12;;;;;;;;;;;;;;;;;;2210301;59;2416;-72
2022/03/03 13:34:46;;;;;;;;;;;;;;;;;;2209882;59;2474;-72
2022/03/03 13:37:20;;;;;;;;;;;;;;;;;;2210176;59;2068;-72
2022/03/03 13:39:53;;;;;;;;;;;;;;;;;;2210707;59;1639;-72
2022/03/03 13:42:28;;;;;;;;;;;;;;;;;;2210965;59;1120;-72
2022/03/03 13:45:04;;;;;;;;;;;;;;;;;;2210796;59;2016;-72
2022/03/03 13:47:40;;;;;;;;;;;;;;;;;;2211150;59;1321;-73
2022/03/03 13:50:20;;;;;;;;;;;;;;;;;;2209794;59;1628;-72
2022/03/03 13:52:53;;;;;;;;;;;;;;;;;;2210798;67;1982;-73
2022/03/03 13:55:26;;;;;;;;;;;;;;;;;;2209965;59;1848;-72
2022/03/03 13:57:59;;;;;;;;;;;;;;;;;;2211457;67;1151;-73
2022/03/03 14:00:37;;;;;;;;;;;;;;;;;;2206406;59;1764;-72
2022/03/03 14:03:12;;;;;;;;;;;;;;;;;;2211410;59;1831;-72
2022/03/03 14:05:47;;;;;;;;;;;;;;;;;;2210564;59;2051;-72
2022/03/03 14:08:23;;;;;;;;;;;;;;;;;;2211995;67;1160;-72
2022/03/03 14:11:00;;;;;;;;;;;;;;;;;;2210297;59;1227;-72
2022/03/03 14:13:34;;;;;;;;;;;;;;;;;;2210355;59;1921;-72
2022/03/03 14:16:10;;;;;;;;;;;;;;;;;;2211537;59;1088;-72
2022/03/03 14:18:44;;;;;;;;;;;;;;;;;;2209685;59;1700;-72
2022/03/03 14:21:17;;;;;;;;;;;;;;;;;;2210365;59;2042;-72
2022/03/03 14:23:51;;;;;;;;;;;;;;;;;;2211511;59;1496;-72
2022/03/03 14:26:26;;;;;;;;;;;;;;;;;;2207546;59;1852;-72
2022/03/03 14:29:00;;;;;;;;;;;;;;;;;;2212248;59;1279;-72
2022/03/03 14:31:36;;;;;;;;;;;;;;;;;;2210630;67;1987;-72
2022/03/03 14:34:09;;;;;;;;;;;;;;;;;;2210379;67;1281;-72
2022/03/03 14:36:42;;;;;;;;;;;;;;;;;;2211061;67;1208;-72
2022/03/03 14:39:15;;;;;;;;;;;;;;;;;;2212039;67;1158;-72
2022/03/03 14:41:49;;;;;;;;;;;;;;;;;;2210617;59;1782;-72
2022/03/03 14:44:22;;;;;;;;;;;;;;;;;;2211576;59;1087;-72
2022/03/03 14:46:58;;;;;;;;;;;;;;;;;;2208132;59;1327;-72
2022/03/03 14:49:31;;;;;;;;;;;;;;;;;;2204816;59;1521;-72
2022/03/03 14:52:05;;;;;;;;;;;;;;;;;;2209149;59;2004;-72
2022/03/03 14:54:38;;;;;;;;;;;;;;;;;;2211301;67;1218;-72
2022/03/03 14:57:12;;;;;;;;;;;;;;;;;;2212456;59;1100;-72
2022/03/03 14:59:46;;;;;;;;;;;;;;;;;;2209778;59;2442;-72
2022/03/03 15:02:22;;;;;;;;;;;;;;;;;;2210739;59;2231;-72
2022/03/03 15:04:56;;;;;;;;;;;;;;;;;;2211992;67;1106;-72
2022/03/03 15:07:29;;;;;;;;;;;;;;;;;;2211364;67;1270;-72
2022/03/03 15:10:02;;;;;;;;;;;;;;;;;;2212096;67;1319;-72
2022/03/03 15:12:35;;;;;;;;;;;;;;;;;;2210126;59;1935;-72
2022/03/03 15:15:09;;;;;;;;;;;;;;;;;;2208503;59;1715;-72
2022/03/03 15:17:45;;;;;;;;;;;;;;;;;;2208149;67;1581;-72
2022/03/03 15:20:18;;;;;;;;;;;;;;;;;;2211566;59;1776;-72
2022/03/03 15:22:52;;;;;;;;;;;;;;;;;;2211754;59;1120;-72
2022/03/03 15:25:25;;;;;;;;;;;;;;;;;;2211713;59;1615;-72
2022/03/03 15:27:59;;;;;;;;;;;;;;;;;;2213006;67;1238;-72
2022/03/03 15:30:33;;;;;;;;;;;;;;;;;;2208278;59;2076;-73
2022/03/03 15:36:44;;;;;;;;;;;;;;;;;;2207304;59;2132;-73
2022/03/03 15:38:51;;;;;;;;;;;;;;;;;;2211647;59;1180;-73
2022/03/03 15:41:24;;;;;;;;;;;;;;;;;;2206570;59;2496;-73
2022/03/03 15:43:58;;;;;;;;;;;;;;;;;;2211914;59;1181;-73
2022/03/03 15:46:32;;;;;;;;;;;;;;;;;;2211800;59;1106;-73
2022/03/03 15:49:08;;;;;;;;;;;;;;;;;;2212694;59;1291;-73
2022/03/03 15:51:43;;;;;;;;;;;;;;;;;;2212329;59;1261;-73
2022/03/03 15:54:17;;;;;;;;;;;;;;;;;;2212304;59;1975;-73
2022/03/03 15:56:50;;;;;;;;;;;;;;;;;;2212354;59;1248;-73
2022/03/03 15:59:25;;;;;;;;;;;;;;;;;;2212219;59;1758;-73
2022/03/03 16:01:58;;;;;;;;;;;;;;;;;;2211310;59;1677;-73
2022/03/03 16:04:35;;;;;;;;;;;;;;;;;;2212293;59;1149;-73
2022/03/03 16:07:10;;;;;;;;;;;;;;;;;;2211225;59;1786;-73
2022/03/03 16:09:43;;;;;;;;;;;;;;;;;;2210859;59;1722;-73
2022/03/03 16:12:17;;;;;;;;;;;;;;;;;;2211392;59;1931;-73
2022/03/03 16:14:52;;;;;;;;;;;;;;;;;;2211116;59;1154;-73
2022/03/03 16:17:26;;;;;;;;;;;;;;;;;;2211543;67;1236;-73
2022/03/03 16:20:02;;;;;;;;;;;;;;;;;;2210831;59;1694;-73
2022/03/03 16:22:35;;;;;;;;;;;;;;;;;;2210921;67;1180;-73
2022/03/03 16:25:09;;;;;;;;;;;;;;;;;;2211644;59;1500;-74
2022/03/03 16:27:42;;;;;;;;;;;;;;;;;;2211345;67;1233;-73
2022/03/03 16:30:15;;;;;;;;;;;;;;;;;;2211427;59;1277;-73
2022/03/03 16:32:50;;;;;;;;;;;;;;;;;;2211183;67;1925;-73
2022/03/03 16:35:26;;;;;;;;;;;;;;;;;;2211815;67;1197;-73
2022/03/03 16:38:00;;;;;;;;;;;;;;;;;;2210374;59;1554;-73
2022/03/03 16:40:33;;;;;;;;;;;;;;;;;;2210627;59;1591;-73
2022/03/03 16:43:07;;;;;;;;;;;;;;;;;;2211475;67;1071;-73
2022/03/03 16:45:40;;;;;;;;;;;;;;;;;;2210988;59;2420;-73
2022/03/03 16:48:13;;;;;;;;;;;;;;;;;;2211420;59;1335;-73
2022/03/03 16:50:50;;;;;;;;;;;;;;;;;;2211164;67;1300;-73
2022/03/03 16:53:23;;;;;;;;;;;;;;;;;;2207864;59;1933;-73
2022/03/03 16:55:57;;;;;;;;;;;;;;;;;;2211308;67;1245;-73
2022/03/03 16:58:31;;;;;;;;;;;;;;;;;;2211679;59;1321;-73
2022/03/03 17:01:04;;;;;;;;;;;;;;;;;;2209940;53;2177;-71
2022/03/03 17:03:37;;;;;;;;;;;;;;;;;;2207837;59;1150;-71
2022/03/03 17:06:14;;;;;;;;;;;;;;;;;;2209048;59;1091;-71
2022/03/03 17:08:47;;;;;;;;;;;;;;;;;;2209348;59;1194;-71
2022/03/03 17:11:20;;;;;;;;;;;;;;;;;;2208967;59;1280;-71
2022/03/03 17:13:54;;;;;;;;;;;;;;;;;;2206430;59;1926;-71
2022/03/03 17:16:27;;;;;;;;;;;;;;;;;;2208385;67;1190;-70
2022/03/03 17:19:01;;;;;;;;;;;;;;;;;;2208711;59;1410;-71
2022/03/03 17:21:37;;;;;;;;;;;;;;;;;;2205927;59;1796;-71
2022/03/03 17:24:12;;;;;;;;;;;;;;;;;;2207829;59;1422;-71
2022/03/03 17:26:46;;;;;;;;;;;;;;;;;;2208182;59;1859;-71
2022/03/03 17:29:19;;;;;;;;;;;;;;;;;;2206039;59;1741;-71
2022/03/03 17:31:53;;;;;;;;;;;;;;;;;;2205649;67;1129;-71
2022/03/03 17:34:26;;;;;;;;;;;;;;;;;;2207245;59;1982;-71
2022/03/03 17:37:02;;;;;;;;;;;;;;;;;;2207357;67;1142;-71
2022/03/03 17:39:35;;;;;;;;;;;;;;;;;;2206845;67;1194;-71
2022/03/03 17:42:08;;;;;;;;;;;;;;;;;;2206866;59;1984;-71
2022/03/03 17:44:44;;;;;;;;;;;;;;;;;;2207897;67;1148;-71
2022/03/03 17:47:18;;;;;;;;;;;;;;;;;;2208270;59;1272;-71
2022/03/03 17:49:52;;;;;;;;;;;;;;;;;;2206974;59;1314;-71
2022/03/03 17:52:28;;;;;;;;;;;;;;;;;;2206173;59;1527;-70
2022/03/03 17:55:01;;;;;;;;;;;;;;;;;;2206074;59;2024;-71
2022/03/03 17:57:34;;;;;;;;;;;;;;;;;;2206533;59;1236;-70